sensor_id;sensor_type;location;lat;lon;timestamp;P1;durP1;ratioP1;P2;durP2;ratioP2
1569;SDS011;778;50.120;8.698;2023-02-15T00:00:23;37.10;;;21.53;;
1569;SDS011;778;50.120;8.698;2023-02-15T00:02:52;38.63;;;22.53;;
1569;SDS011;778;50.120;8.698;2023-02-15T00:05:22;34.70;;;21.43;;
1569;SDS011;778;50.120;8.698;2023-02-15T00:07:50;34.93;;;22.57;;
1569;SDS011;778;50.120;8.698;2023-02-15T00:10:19;36.20;;;22.30;;
1569;SDS011;778;50.120;8.698;2023-02-15T00:12:47;40.27;;;22.53;;
1569;SDS011;778;50.120;8.698;2023-02-15T00:15:16;34.40;;;21.53;;
1569;SDS011;778;50.120;8.698;2023-02-15T00:17:44;40.53;;;24.07;;
1569;SDS011;778;50.120;8.698;2023-02-15T00:22:43;33.67;;;22.30;;
1569;SDS011;778;50.120;8.698;2023-02-15T00:25:12;32.97;;;20.77;;
1569;SDS011;778;50.120;8.698;2023-02-15T00:27:43;37.73;;;23.07;;
1569;SDS011;778;50.120;8.698;2023-02-15T00:30:12;33.93;;;21.90;;
1569;SDS011;778;50.120;8.698;2023-02-15T00:32:41;35.30;;;22.43;;
1569;SDS011;778;50.120;8.698;2023-02-15T00:35:10;41.13;;;24.07;;
1569;SDS011;778;50.120;8.698;2023-02-15T00:37:39;37.63;;;22.23;;
1569;SDS011;778;50.120;8.698;2023-02-15T00:40:09;37.07;;;23.00;;
1569;SDS011;778;50.120;8.698;2023-02-15T00:42:38;38.83;;;21.47;;
1569;SDS011;778;50.120;8.698;2023-02-15T00:45:07;40.20;;;22.73;;
1569;SDS011;778;50.120;8.698;2023-02-15T00:47:36;40.27;;;23.30;;
1569;SDS011;778;50.120;8.698;2023-02-15T00:50:05;37.53;;;23.90;;
1569;SDS011;778;50.120;8.698;2023-02-15T00:52:34;39.07;;;22.10;;
1569;SDS011;778;50.120;8.698;2023-02-15T00:55:03;37.00;;;23.07;;
1569;SDS011;778;50.120;8.698;2023-02-15T00:57:33;37.63;;;22.73;;
1569;SDS011;778;50.120;8.698;2023-02-15T01:00:02;42.40;;;25.20;;
1569;SDS011;778;50.120;8.698;2023-02-15T01:02:31;36.27;;;22.37;;
1569;SDS011;778;50.120;8.698;2023-02-15T01:05:01;44.57;;;26.33;;
1569;SDS011;778;50.120;8.698;2023-02-15T01:07:29;41.63;;;22.00;;
1569;SDS011;778;50.120;8.698;2023-02-15T01:09:58;39.30;;;24.73;;
1569;SDS011;778;50.120;8.698;2023-02-15T01:12:26;38.93;;;23.67;;
1569;SDS011;778;50.120;8.698;2023-02-15T01:14:56;40.10;;;25.00;;
1569;SDS011;778;50.120;8.698;2023-02-15T01:17:25;45.20;;;25.23;;
1569;SDS011;778;50.120;8.698;2023-02-15T01:19:54;46.10;;;25.20;;
1569;SDS011;778;50.120;8.698;2023-02-15T01:22:22;44.57;;;25.10;;
1569;SDS011;778;50.120;8.698;2023-02-15T01:24:51;39.30;;;23.57;;
1569;SDS011;778;50.120;8.698;2023-02-15T01:27:20;41.90;;;24.83;;
1569;SDS011;778;50.120;8.698;2023-02-15T01:29:48;45.03;;;25.53;;
1569;SDS011;778;50.120;8.698;2023-02-15T01:32:18;45.33;;;24.50;;
1569;SDS011;778;50.120;8.698;2023-02-15T01:34:47;42.53;;;23.90;;
1569;SDS011;778;50.120;8.698;2023-02-15T01:37:16;42.03;;;25.50;;
1569;SDS011;778;50.120;8.698;2023-02-15T01:39:45;43.90;;;24.47;;
1569;SDS011;778;50.120;8.698;2023-02-15T01:42:13;40.53;;;25.00;;
1569;SDS011;778;50.120;8.698;2023-02-15T01:44:49;44.17;;;24.03;;
1569;SDS011;778;50.120;8.698;2023-02-15T01:47:25;41.30;;;22.40;;
1569;SDS011;778;50.120;8.698;2023-02-15T01:50:03;42.70;;;23.53;;
1569;SDS011;778;50.120;8.698;2023-02-15T01:52:40;42.10;;;24.77;;
1569;SDS011;778;50.120;8.698;2023-02-15T01:55:16;43.47;;;24.67;;
1569;SDS011;778;50.120;8.698;2023-02-15T01:57:45;43.23;;;24.50;;
1569;SDS011;778;50.120;8.698;2023-02-15T02:00:14;42.03;;;23.80;;
1569;SDS011;778;50.120;8.698;2023-02-15T02:02:48;40.07;;;24.27;;
1569;SDS011;778;50.120;8.698;2023-02-15T02:05:24;42.60;;;25.93;;
1569;SDS011;778;50.120;8.698;2023-02-15T02:07:54;49.47;;;25.97;;
1569;SDS011;778;50.120;8.698;2023-02-15T02:10:26;43.53;;;23.17;;
1569;SDS011;778;50.120;8.698;2023-02-15T02:12:56;41.57;;;23.23;;
1569;SDS011;778;50.120;8.698;2023-02-15T02:15:32;42.53;;;25.37;;
1569;SDS011;778;50.120;8.698;2023-02-15T02:18:14;40.97;;;23.37;;
1569;SDS011;778;50.120;8.698;2023-02-15T02:24:26;44.40;;;24.27;;
1569;SDS011;778;50.120;8.698;2023-02-15T02:27:31;45.17;;;25.70;;
1569;SDS011;778;50.120;8.698;2023-02-15T02:30:10;48.20;;;25.53;;
1569;SDS011;778;50.120;8.698;2023-02-15T02:33:30;42.70;;;23.30;;
1569;SDS011;778;50.120;8.698;2023-02-15T02:36:20;38.00;;;23.37;;
1569;SDS011;778;50.120;8.698;2023-02-15T02:39:00;45.73;;;24.07;;
1569;SDS011;778;50.120;8.698;2023-02-15T02:41:43;42.83;;;24.50;;
1569;SDS011;778;50.120;8.698;2023-02-15T02:44:22;41.73;;;23.47;;
1569;SDS011;778;50.120;8.698;2023-02-15T02:46:55;40.70;;;23.70;;
1569;SDS011;778;50.120;8.698;2023-02-15T02:49:33;46.57;;;25.87;;
1569;SDS011;778;50.120;8.698;2023-02-15T02:52:05;37.13;;;23.10;;
1569;SDS011;778;50.120;8.698;2023-02-15T02:55:05;38.33;;;23.10;;
1569;SDS011;778;50.120;8.698;2023-02-15T02:57:41;49.43;;;27.73;;
1569;SDS011;778;50.120;8.698;2023-02-15T03:00:18;44.63;;;24.00;;
1569;SDS011;778;50.120;8.698;2023-02-15T03:02:50;39.87;;;23.90;;
1569;SDS011;778;50.120;8.698;2023-02-15T03:05:26;45.07;;;22.83;;
1569;SDS011;778;50.120;8.698;2023-02-15T03:07:57;43.83;;;23.83;;
1569;SDS011;778;50.120;8.698;2023-02-15T03:10:32;44.80;;;25.43;;
1569;SDS011;778;50.120;8.698;2023-02-15T03:13:04;40.07;;;22.90;;
1569;SDS011;778;50.120;8.698;2023-02-15T03:15:33;42.10;;;22.10;;
1569;SDS011;778;50.120;8.698;2023-02-15T03:18:24;45.80;;;23.63;;
1569;SDS011;778;50.120;8.698;2023-02-15T03:20:59;43.73;;;25.70;;
1569;SDS011;778;50.120;8.698;2023-02-15T03:23:30;41.30;;;23.27;;
1569;SDS011;778;50.120;8.698;2023-02-15T03:26:03;42.03;;;24.27;;
1569;SDS011;778;50.120;8.698;2023-02-15T03:28:38;43.20;;;25.33;;
1569;SDS011;778;50.120;8.698;2023-02-15T03:31:11;48.90;;;25.73;;
1569;SDS011;778;50.120;8.698;2023-02-15T03:33:44;50.93;;;24.50;;
1569;SDS011;778;50.120;8.698;2023-02-15T03:36:20;43.87;;;24.33;;
1569;SDS011;778;50.120;8.698;2023-02-15T03:38:58;49.03;;;26.07;;
1569;SDS011;778;50.120;8.698;2023-02-15T03:41:36;44.63;;;25.20;;
1569;SDS011;778;50.120;8.698;2023-02-15T03:44:13;48.23;;;25.07;;
1569;SDS011;778;50.120;8.698;2023-02-15T03:46:49;47.93;;;27.03;;
1569;SDS011;778;50.120;8.698;2023-02-15T03:49:24;45.83;;;24.10;;
1569;SDS011;778;50.120;8.698;2023-02-15T03:51:57;44.80;;;24.97;;
1569;SDS011;778;50.120;8.698;2023-02-15T03:54:28;47.13;;;25.70;;
1569;SDS011;778;50.120;8.698;2023-02-15T03:57:14;47.67;;;25.47;;
1569;SDS011;778;50.120;8.698;2023-02-15T04:00:04;45.03;;;24.67;;
1569;SDS011;778;50.120;8.698;2023-02-15T04:03:08;48.20;;;24.60;;
1569;SDS011;778;50.120;8.698;2023-02-15T04:05:46;48.07;;;27.37;;
1569;SDS011;778;50.120;8.698;2023-02-15T04:08:16;53.87;;;28.60;;
1569;SDS011;778;50.120;8.698;2023-02-15T04:10:45;51.00;;;26.43;;
1569;SDS011;778;50.120;8.698;2023-02-15T04:13:18;47.80;;;24.23;;
1569;SDS011;778;50.120;8.698;2023-02-15T04:15:48;43.03;;;23.80;;
1569;SDS011;778;50.120;8.698;2023-02-15T04:18:34;51.03;;;26.50;;
1569;SDS011;778;50.120;8.698;2023-02-15T04:21:23;44.70;;;24.90;;
1569;SDS011;778;50.120;8.698;2023-02-15T04:24:13;47.27;;;24.83;;
1569;SDS011;778;50.120;8.698;2023-02-15T04:27:00;48.80;;;25.67;;
1569;SDS011;778;50.120;8.698;2023-02-15T04:29:30;50.60;;;26.53;;
1569;SDS011;778;50.120;8.698;2023-02-15T04:32:00;46.87;;;25.27;;
1569;SDS011;778;50.120;8.698;2023-02-15T04:34:29;56.87;;;27.00;;
1569;SDS011;778;50.120;8.698;2023-02-15T04:36:58;53.27;;;27.53;;
1569;SDS011;778;50.120;8.698;2023-02-15T04:39:27;47.63;;;26.00;;
1569;SDS011;778;50.120;8.698;2023-02-15T04:41:56;61.37;;;29.00;;
1569;SDS011;778;50.120;8.698;2023-02-15T04:44:25;58.90;;;27.60;;
1569;SDS011;778;50.120;8.698;2023-02-15T04:46:53;60.77;;;29.30;;
1569;SDS011;778;50.120;8.698;2023-02-15T04:49:22;55.43;;;27.47;;
1569;SDS011;778;50.120;8.698;2023-02-15T04:51:50;53.87;;;26.83;;
1569;SDS011;778;50.120;8.698;2023-02-15T04:54:19;48.10;;;25.77;;
1569;SDS011;778;50.120;8.698;2023-02-15T04:56:49;50.83;;;25.37;;
1569;SDS011;778;50.120;8.698;2023-02-15T04:59:18;46.97;;;25.53;;
1569;SDS011;778;50.120;8.698;2023-02-15T05:01:46;48.60;;;25.07;;
1569;SDS011;778;50.120;8.698;2023-02-15T05:04:15;57.77;;;27.80;;
1569;SDS011;778;50.120;8.698;2023-02-15T05:06:43;53.03;;;26.03;;
1569;SDS011;778;50.120;8.698;2023-02-15T05:09:12;49.20;;;27.10;;
1569;SDS011;778;50.120;8.698;2023-02-15T05:11:41;54.43;;;26.97;;
1569;SDS011;778;50.120;8.698;2023-02-15T05:14:11;52.07;;;26.70;;
1569;SDS011;778;50.120;8.698;2023-02-15T05:16:40;59.83;;;29.40;;
1569;SDS011;778;50.120;8.698;2023-02-15T05:19:08;61.67;;;28.90;;
1569;SDS011;778;50.120;8.698;2023-02-15T05:21:37;56.00;;;28.67;;
1569;SDS011;778;50.120;8.698;2023-02-15T05:24:07;51.37;;;28.73;;
1569;SDS011;778;50.120;8.698;2023-02-15T05:26:49;53.20;;;28.63;;
1569;SDS011;778;50.120;8.698;2023-02-15T05:29:36;55.57;;;28.83;;
1569;SDS011;778;50.120;8.698;2023-02-15T05:32:05;53.17;;;26.60;;
1569;SDS011;778;50.120;8.698;2023-02-15T05:34:33;57.43;;;29.50;;
1569;SDS011;778;50.120;8.698;2023-02-15T05:37:02;51.00;;;27.10;;
1569;SDS011;778;50.120;8.698;2023-02-15T05:39:30;60.53;;;28.10;;
1569;SDS011;778;50.120;8.698;2023-02-15T05:41:59;44.50;;;24.53;;
1569;SDS011;778;50.120;8.698;2023-02-15T05:44:27;54.50;;;30.00;;
1569;SDS011;778;50.120;8.698;2023-02-15T05:46:57;59.67;;;27.07;;
1569;SDS011;778;50.120;8.698;2023-02-15T05:49:26;52.57;;;27.30;;
1569;SDS011;778;50.120;8.698;2023-02-15T05:51:54;53.97;;;27.90;;
1569;SDS011;778;50.120;8.698;2023-02-15T05:54:23;53.10;;;28.43;;
1569;SDS011;778;50.120;8.698;2023-02-15T05:56:51;52.10;;;27.40;;
1569;SDS011;778;50.120;8.698;2023-02-15T05:59:19;51.77;;;26.43;;
1569;SDS011;778;50.120;8.698;2023-02-15T06:01:48;52.80;;;25.80;;
1569;SDS011;778;50.120;8.698;2023-02-15T06:04:18;52.03;;;26.80;;
1569;SDS011;778;50.120;8.698;2023-02-15T06:06:46;49.57;;;24.70;;
1569;SDS011;778;50.120;8.698;2023-02-15T06:09:15;50.47;;;26.60;;
1569;SDS011;778;50.120;8.698;2023-02-15T06:11:44;47.70;;;26.43;;
1569;SDS011;778;50.120;8.698;2023-02-15T06:14:13;47.10;;;24.70;;
1569;SDS011;778;50.120;8.698;2023-02-15T06:16:41;50.63;;;23.20;;
1569;SDS011;778;50.120;8.698;2023-02-15T06:19:09;49.40;;;26.23;;
1569;SDS011;778;50.120;8.698;2023-02-15T06:21:39;49.87;;;25.80;;
1569;SDS011;778;50.120;8.698;2023-02-15T06:24:08;53.30;;;26.80;;
1569;SDS011;778;50.120;8.698;2023-02-15T06:26:37;53.20;;;25.57;;
1569;SDS011;778;50.120;8.698;2023-02-15T06:29:05;55.90;;;26.53;;
1569;SDS011;778;50.120;8.698;2023-02-15T06:31:34;49.17;;;26.17;;
1569;SDS011;778;50.120;8.698;2023-02-15T06:34:03;45.30;;;25.17;;
1569;SDS011;778;50.120;8.698;2023-02-15T06:36:32;55.63;;;26.27;;
1569;SDS011;778;50.120;8.698;2023-02-15T06:39:02;45.13;;;24.73;;
1569;SDS011;778;50.120;8.698;2023-02-15T06:41:30;50.70;;;24.87;;
1569;SDS011;778;50.120;8.698;2023-02-15T06:43:59;37.40;;;21.60;;
1569;SDS011;778;50.120;8.698;2023-02-15T06:46:27;44.00;;;22.87;;
1569;SDS011;778;50.120;8.698;2023-02-15T06:48:56;50.57;;;26.17;;
1569;SDS011;778;50.120;8.698;2023-02-15T06:51:24;52.77;;;30.00;;
1569;SDS011;778;50.120;8.698;2023-02-15T06:53:53;50.40;;;24.23;;
1569;SDS011;778;50.120;8.698;2023-02-15T06:56:29;40.80;;;23.23;;
1569;SDS011;778;50.120;8.698;2023-02-15T06:58:58;44.20;;;24.03;;
1569;SDS011;778;50.120;8.698;2023-02-15T07:01:26;42.13;;;22.43;;
1569;SDS011;778;50.120;8.698;2023-02-15T07:03:55;48.80;;;26.27;;
1569;SDS011;778;50.120;8.698;2023-02-15T07:06:23;46.53;;;25.37;;
1569;SDS011;778;50.120;8.698;2023-02-15T07:08:52;45.40;;;23.60;;
1569;SDS011;778;50.120;8.698;2023-02-15T07:11:20;42.53;;;24.93;;
1569;SDS011;778;50.120;8.698;2023-02-15T07:14:08;46.87;;;24.80;;
1569;SDS011;778;50.120;8.698;2023-02-15T07:16:36;50.73;;;24.30;;
1569;SDS011;778;50.120;8.698;2023-02-15T07:19:05;46.63;;;24.27;;
1569;SDS011;778;50.120;8.698;2023-02-15T07:21:34;48.07;;;25.87;;
1569;SDS011;778;50.120;8.698;2023-02-15T07:24:04;52.70;;;26.27;;
1569;SDS011;778;50.120;8.698;2023-02-15T07:26:33;47.63;;;24.93;;
1569;SDS011;778;50.120;8.698;2023-02-15T07:29:01;46.60;;;22.60;;
1569;SDS011;778;50.120;8.698;2023-02-15T07:31:32;46.30;;;26.37;;
1569;SDS011;778;50.120;8.698;2023-02-15T07:34:01;52.50;;;26.30;;
1569;SDS011;778;50.120;8.698;2023-02-15T07:36:29;42.53;;;24.00;;
1569;SDS011;778;50.120;8.698;2023-02-15T07:38:59;59.67;;;27.03;;
1569;SDS011;778;50.120;8.698;2023-02-15T07:41:27;51.07;;;25.60;;
1569;SDS011;778;50.120;8.698;2023-02-15T07:43:56;43.13;;;22.80;;
1569;SDS011;778;50.120;8.698;2023-02-15T07:46:24;44.07;;;23.90;;
1569;SDS011;778;50.120;8.698;2023-02-15T07:48:54;40.67;;;22.53;;
1569;SDS011;778;50.120;8.698;2023-02-15T07:51:23;35.93;;;22.70;;
1569;SDS011;778;50.120;8.698;2023-02-15T07:53:51;41.27;;;21.40;;
1569;SDS011;778;50.120;8.698;2023-02-15T07:56:20;38.90;;;23.47;;
1569;SDS011;778;50.120;8.698;2023-02-15T07:58:48;38.83;;;22.47;;
1569;SDS011;778;50.120;8.698;2023-02-15T08:01:22;46.93;;;22.50;;
1569;SDS011;778;50.120;8.698;2023-02-15T08:03:54;32.50;;;19.70;;
1569;SDS011;778;50.120;8.698;2023-02-15T08:06:27;31.33;;;20.50;;
1569;SDS011;778;50.120;8.698;2023-02-15T08:08:57;29.23;;;20.90;;
1569;SDS011;778;50.120;8.698;2023-02-15T08:11:27;34.90;;;19.27;;
1569;SDS011;778;50.120;8.698;2023-02-15T08:14:00;33.50;;;19.47;;
1569;SDS011;778;50.120;8.698;2023-02-15T08:16:32;34.27;;;20.57;;
1569;SDS011;778;50.120;8.698;2023-02-15T08:19:05;31.67;;;20.13;;
1569;SDS011;778;50.120;8.698;2023-02-15T08:21:36;35.53;;;20.40;;
1569;SDS011;778;50.120;8.698;2023-02-15T08:24:07;28.70;;;17.70;;
1569;SDS011;778;50.120;8.698;2023-02-15T08:26:37;33.83;;;19.37;;
1569;SDS011;778;50.120;8.698;2023-02-15T08:29:08;27.97;;;17.23;;
1569;SDS011;778;50.120;8.698;2023-02-15T08:31:37;26.80;;;16.67;;
1569;SDS011;778;50.120;8.698;2023-02-15T08:34:09;27.37;;;17.40;;
1569;SDS011;778;50.120;8.698;2023-02-15T08:36:41;26.23;;;18.03;;
1569;SDS011;778;50.120;8.698;2023-02-15T08:39:11;21.37;;;15.10;;
1569;SDS011;778;50.120;8.698;2023-02-15T08:41:48;26.40;;;16.40;;
1569;SDS011;778;50.120;8.698;2023-02-15T08:44:17;26.60;;;18.23;;
1569;SDS011;778;50.120;8.698;2023-02-15T08:46:48;25.77;;;17.10;;
1569;SDS011;778;50.120;8.698;2023-02-15T08:49:21;28.87;;;17.60;;
1569;SDS011;778;50.120;8.698;2023-02-15T08:51:50;22.03;;;16.77;;
1569;SDS011;778;50.120;8.698;2023-02-15T08:54:21;25.10;;;16.30;;
1569;SDS011;778;50.120;8.698;2023-02-15T08:56:51;23.67;;;16.57;;
1569;SDS011;778;50.120;8.698;2023-02-15T08:59:49;21.23;;;14.50;;
1569;SDS011;778;50.120;8.698;2023-02-15T09:02:36;25.00;;;15.40;;
1569;SDS011;778;50.120;8.698;2023-02-15T09:05:43;24.47;;;16.27;;
1569;SDS011;778;50.120;8.698;2023-02-15T09:08:28;23.10;;;14.77;;
1569;SDS011;778;50.120;8.698;2023-02-15T09:11:15;21.47;;;14.63;;
1569;SDS011;778;50.120;8.698;2023-02-15T09:13:55;23.43;;;15.73;;
1569;SDS011;778;50.120;8.698;2023-02-15T09:16:47;21.90;;;14.80;;
1569;SDS011;778;50.120;8.698;2023-02-15T09:19:36;23.13;;;15.77;;
1569;SDS011;778;50.120;8.698;2023-02-15T09:22:43;21.90;;;14.93;;
1569;SDS011;778;50.120;8.698;2023-02-15T09:25:33;24.17;;;15.80;;
1569;SDS011;778;50.120;8.698;2023-02-15T09:28:47;19.03;;;13.93;;
1569;SDS011;778;50.120;8.698;2023-02-15T09:31:43;22.33;;;14.80;;
1569;SDS011;778;50.120;8.698;2023-02-15T09:35:15;21.43;;;15.07;;
1569;SDS011;778;50.120;8.698;2023-02-15T09:37:54;22.20;;;15.00;;
1569;SDS011;778;50.120;8.698;2023-02-15T09:40:22;22.87;;;14.40;;
1569;SDS011;778;50.120;8.698;2023-02-15T09:42:54;18.70;;;13.93;;
1569;SDS011;778;50.120;8.698;2023-02-15T09:45:52;19.43;;;14.40;;
1569;SDS011;778;50.120;8.698;2023-02-15T09:49:21;18.07;;;14.37;;
1569;SDS011;778;50.120;8.698;2023-02-15T09:52:12;19.23;;;12.93;;
1569;SDS011;778;50.120;8.698;2023-02-15T09:55:27;20.43;;;14.47;;
1569;SDS011;778;50.120;8.698;2023-02-15T09:58:27;19.50;;;13.10;;
1569;SDS011;778;50.120;8.698;2023-02-15T10:01:14;23.00;;;14.50;;
1569;SDS011;778;50.120;8.698;2023-02-15T10:04:03;21.70;;;15.00;;
1569;SDS011;778;50.120;8.698;2023-02-15T10:07:02;21.20;;;15.10;;
1569;SDS011;778;50.120;8.698;2023-02-15T10:09:50;19.93;;;13.50;;
1569;SDS011;778;50.120;8.698;2023-02-15T10:12:52;19.60;;;13.73;;
1569;SDS011;778;50.120;8.698;2023-02-15T10:15:40;24.80;;;16.03;;
1569;SDS011;778;50.120;8.698;2023-02-15T10:18:55;30.57;;;18.73;;
1569;SDS011;778;50.120;8.698;2023-02-15T10:21:48;25.50;;;16.73;;
1569;SDS011;778;50.120;8.698;2023-02-15T10:24:46;24.23;;;16.80;;
1569;SDS011;778;50.120;8.698;2023-02-15T10:27:42;27.30;;;17.30;;
1569;SDS011;778;50.120;8.698;2023-02-15T10:30:31;23.37;;;16.33;;
1569;SDS011;778;50.120;8.698;2023-02-15T10:33:19;25.27;;;16.40;;
1569;SDS011;778;50.120;8.698;2023-02-15T10:36:07;26.07;;;16.40;;
1569;SDS011;778;50.120;8.698;2023-02-15T10:38:55;23.03;;;15.30;;
1569;SDS011;778;50.120;8.698;2023-02-15T10:41:58;25.40;;;16.47;;
1569;SDS011;778;50.120;8.698;2023-02-15T10:44:55;29.80;;;17.53;;
1569;SDS011;778;50.120;8.698;2023-02-15T10:51:32;25.87;;;16.57;;
1569;SDS011;778;50.120;8.698;2023-02-15T10:54:25;23.03;;;13.83;;
1569;SDS011;778;50.120;8.698;2023-02-15T10:57:24;25.93;;;15.83;;
1569;SDS011;778;50.120;8.698;2023-02-15T11:00:05;22.23;;;15.97;;
1569;SDS011;778;50.120;8.698;2023-02-15T11:06:05;26.90;;;17.63;;
1569;SDS011;778;50.120;8.698;2023-02-15T11:08:40;32.33;;;19.40;;
1569;SDS011;778;50.120;8.698;2023-02-15T11:11:14;28.17;;;17.30;;
1569;SDS011;778;50.120;8.698;2023-02-15T11:13:50;27.27;;;17.13;;
1569;SDS011;778;50.120;8.698;2023-02-15T11:16:26;29.90;;;17.57;;
1569;SDS011;778;50.120;8.698;2023-02-15T11:19:01;29.27;;;17.13;;
1569;SDS011;778;50.120;8.698;2023-02-15T11:21:34;26.10;;;17.57;;
1569;SDS011;778;50.120;8.698;2023-02-15T11:24:09;26.07;;;16.60;;
1569;SDS011;778;50.120;8.698;2023-02-15T11:26:41;29.67;;;17.37;;
1569;SDS011;778;50.120;8.698;2023-02-15T11:29:13;31.23;;;18.37;;
1569;SDS011;778;50.120;8.698;2023-02-15T11:31:53;27.10;;;17.50;;
1569;SDS011;778;50.120;8.698;2023-02-15T11:34:27;33.90;;;18.60;;
1569;SDS011;778;50.120;8.698;2023-02-15T11:37:01;29.13;;;18.60;;
1569;SDS011;778;50.120;8.698;2023-02-15T11:39:36;31.50;;;20.43;;
1569;SDS011;778;50.120;8.698;2023-02-15T11:42:06;40.17;;;20.30;;
1569;SDS011;778;50.120;8.698;2023-02-15T11:44:43;33.83;;;20.70;;
1569;SDS011;778;50.120;8.698;2023-02-15T11:47:22;44.10;;;24.40;;
1569;SDS011;778;50.120;8.698;2023-02-15T11:49:51;38.60;;;24.97;;
1569;SDS011;778;50.120;8.698;2023-02-15T11:52:19;40.80;;;24.13;;
1569;SDS011;778;50.120;8.698;2023-02-15T11:54:49;52.50;;;28.83;;
1569;SDS011;778;50.120;8.698;2023-02-15T11:57:20;40.87;;;24.63;;
1569;SDS011;778;50.120;8.698;2023-02-15T11:59:55;51.10;;;28.27;;
1569;SDS011;778;50.120;8.698;2023-02-15T12:02:34;45.80;;;26.47;;
1569;SDS011;778;50.120;8.698;2023-02-15T12:05:06;52.00;;;26.30;;
1569;SDS011;778;50.120;8.698;2023-02-15T12:07:41;46.60;;;26.90;;
1569;SDS011;778;50.120;8.698;2023-02-15T12:10:17;44.47;;;25.67;;
1569;SDS011;778;50.120;8.698;2023-02-15T12:12:53;45.27;;;25.63;;
1569;SDS011;778;50.120;8.698;2023-02-15T12:15:40;50.47;;;25.43;;
1569;SDS011;778;50.120;8.698;2023-02-15T12:18:18;51.33;;;26.70;;
1569;SDS011;778;50.120;8.698;2023-02-15T12:21:02;41.87;;;24.23;;
1569;SDS011;778;50.120;8.698;2023-02-15T12:23:34;41.13;;;25.50;;
1569;SDS011;778;50.120;8.698;2023-02-15T12:26:11;42.10;;;24.90;;
1569;SDS011;778;50.120;8.698;2023-02-15T12:28:55;50.03;;;27.60;;
1569;SDS011;778;50.120;8.698;2023-02-15T12:31:31;46.63;;;27.53;;
1569;SDS011;778;50.120;8.698;2023-02-15T12:34:17;42.93;;;25.37;;
1569;SDS011;778;50.120;8.698;2023-02-15T12:36:51;37.30;;;22.57;;
1569;SDS011;778;50.120;8.698;2023-02-15T12:39:25;43.20;;;24.43;;
1569;SDS011;778;50.120;8.698;2023-02-15T12:42:03;45.90;;;26.00;;
1569;SDS011;778;50.120;8.698;2023-02-15T12:44:52;38.13;;;23.47;;
1569;SDS011;778;50.120;8.698;2023-02-15T12:47:27;47.03;;;27.07;;
1569;SDS011;778;50.120;8.698;2023-02-15T12:50:06;44.93;;;26.40;;
1569;SDS011;778;50.120;8.698;2023-02-15T12:52:45;44.43;;;25.27;;
1569;SDS011;778;50.120;8.698;2023-02-15T12:55:21;50.53;;;27.67;;
1569;SDS011;778;50.120;8.698;2023-02-15T12:58:06;50.13;;;26.90;;
1569;SDS011;778;50.120;8.698;2023-02-15T13:00:40;47.83;;;27.10;;
1569;SDS011;778;50.120;8.698;2023-02-15T13:03:15;53.10;;;26.07;;
1569;SDS011;778;50.120;8.698;2023-02-15T13:05:49;44.70;;;27.30;;
1569;SDS011;778;50.120;8.698;2023-02-15T13:08:21;41.30;;;25.30;;
1569;SDS011;778;50.120;8.698;2023-02-15T13:10:59;47.70;;;26.67;;
1569;SDS011;778;50.120;8.698;2023-02-15T13:13:30;47.43;;;27.90;;
1569;SDS011;778;50.120;8.698;2023-02-15T13:16:02;47.27;;;28.43;;
1569;SDS011;778;50.120;8.698;2023-02-15T13:18:35;50.77;;;28.50;;
1569;SDS011;778;50.120;8.698;2023-02-15T13:21:12;47.53;;;27.73;;
1569;SDS011;778;50.120;8.698;2023-02-15T13:23:44;55.87;;;31.73;;
1569;SDS011;778;50.120;8.698;2023-02-15T13:26:16;52.93;;;29.47;;
1569;SDS011;778;50.120;8.698;2023-02-15T13:28:49;53.83;;;29.10;;
1569;SDS011;778;50.120;8.698;2023-02-15T13:31:23;51.90;;;27.87;;
1569;SDS011;778;50.120;8.698;2023-02-15T13:34:00;64.10;;;31.03;;
1569;SDS011;778;50.120;8.698;2023-02-15T13:36:33;56.50;;;29.63;;
1569;SDS011;778;50.120;8.698;2023-02-15T13:39:13;49.60;;;28.93;;
1569;SDS011;778;50.120;8.698;2023-02-15T13:41:53;56.87;;;29.47;;
1569;SDS011;778;50.120;8.698;2023-02-15T13:44:36;60.40;;;30.37;;
1569;SDS011;778;50.120;8.698;2023-02-15T13:47:25;53.47;;;29.87;;
1569;SDS011;778;50.120;8.698;2023-02-15T13:50:07;51.47;;;30.80;;
1569;SDS011;778;50.120;8.698;2023-02-15T13:52:56;56.80;;;33.20;;
1569;SDS011;778;50.120;8.698;2023-02-15T13:55:43;55.57;;;31.10;;
1569;SDS011;778;50.120;8.698;2023-02-15T13:58:20;53.83;;;31.90;;
1569;SDS011;778;50.120;8.698;2023-02-15T14:01:26;51.93;;;29.50;;
1569;SDS011;778;50.120;8.698;2023-02-15T14:07:21;55.53;;;29.10;;
1569;SDS011;778;50.120;8.698;2023-02-15T14:10:15;52.10;;;29.63;;
1569;SDS011;778;50.120;8.698;2023-02-15T14:13:12;51.23;;;30.20;;
1569;SDS011;778;50.120;8.698;2023-02-15T14:16:03;51.33;;;30.90;;
1569;SDS011;778;50.120;8.698;2023-02-15T14:18:42;63.00;;;32.33;;
1569;SDS011;778;50.120;8.698;2023-02-15T14:21:17;50.60;;;28.47;;
1569;SDS011;778;50.120;8.698;2023-02-15T14:23:54;56.37;;;33.77;;
1569;SDS011;778;50.120;8.698;2023-02-15T14:26:38;58.67;;;30.73;;
1569;SDS011;778;50.120;8.698;2023-02-15T14:29:17;54.10;;;31.90;;
1569;SDS011;778;50.120;8.698;2023-02-15T14:31:55;58.20;;;32.93;;
1569;SDS011;778;50.120;8.698;2023-02-15T14:34:27;53.07;;;31.20;;
1569;SDS011;778;50.120;8.698;2023-02-15T14:37:04;55.10;;;33.37;;
1569;SDS011;778;50.120;8.698;2023-02-15T14:39:35;61.70;;;32.23;;
1569;SDS011;778;50.120;8.698;2023-02-15T14:42:30;54.47;;;31.80;;
1569;SDS011;778;50.120;8.698;2023-02-15T14:45:05;54.33;;;29.13;;
1569;SDS011;778;50.120;8.698;2023-02-15T14:47:46;57.23;;;31.70;;
1569;SDS011;778;50.120;8.698;2023-02-15T14:50:40;55.20;;;30.70;;
1569;SDS011;778;50.120;8.698;2023-02-15T14:56:05;52.67;;;30.53;;
1569;SDS011;778;50.120;8.698;2023-02-15T14:59:01;50.53;;;30.70;;
1569;SDS011;778;50.120;8.698;2023-02-15T15:01:51;55.30;;;30.93;;
1569;SDS011;778;50.120;8.698;2023-02-15T15:04:27;60.20;;;32.00;;
1569;SDS011;778;50.120;8.698;2023-02-15T15:07:04;64.20;;;33.47;;
1569;SDS011;778;50.120;8.698;2023-02-15T15:09:42;55.13;;;30.77;;
1569;SDS011;778;50.120;8.698;2023-02-15T15:12:18;49.10;;;28.20;;
1569;SDS011;778;50.120;8.698;2023-02-15T15:15:09;58.50;;;32.03;;
1569;SDS011;778;50.120;8.698;2023-02-15T15:26:21;60.07;;;32.60;;
1569;SDS011;778;50.120;8.698;2023-02-15T15:29:00;52.83;;;30.23;;
1569;SDS011;778;50.120;8.698;2023-02-15T15:31:43;58.43;;;30.27;;
1569;SDS011;778;50.120;8.698;2023-02-15T15:34:34;60.20;;;31.70;;
1569;SDS011;778;50.120;8.698;2023-02-15T15:37:33;50.63;;;28.60;;
1569;SDS011;778;50.120;8.698;2023-02-15T15:47:09;82.20;;;32.93;;
1569;SDS011;778;50.120;8.698;2023-02-15T15:50:04;61.10;;;33.23;;
1569;SDS011;778;50.120;8.698;2023-02-15T15:52:41;59.27;;;31.30;;
1569;SDS011;778;50.120;8.698;2023-02-15T15:55:15;66.17;;;34.87;;
1569;SDS011;778;50.120;8.698;2023-02-15T15:57:48;65.57;;;33.93;;
1569;SDS011;778;50.120;8.698;2023-02-15T16:00:24;66.70;;;35.53;;
1569;SDS011;778;50.120;8.698;2023-02-15T16:03:03;63.60;;;33.10;;
1569;SDS011;778;50.120;8.698;2023-02-15T16:05:36;60.03;;;34.17;;
1569;SDS011;778;50.120;8.698;2023-02-15T16:08:06;69.97;;;34.77;;
1569;SDS011;778;50.120;8.698;2023-02-15T16:10:34;59.10;;;31.77;;
1569;SDS011;778;50.120;8.698;2023-02-15T16:13:04;76.17;;;38.63;;
1569;SDS011;778;50.120;8.698;2023-02-15T16:15:35;70.80;;;36.50;;
1569;SDS011;778;50.120;8.698;2023-02-15T16:18:14;63.20;;;35.50;;
1569;SDS011;778;50.120;8.698;2023-02-15T16:20:48;64.87;;;35.10;;
1569;SDS011;778;50.120;8.698;2023-02-15T16:23:30;64.43;;;35.87;;
1569;SDS011;778;50.120;8.698;2023-02-15T16:26:21;64.80;;;34.97;;
1569;SDS011;778;50.120;8.698;2023-02-15T16:29:25;68.87;;;38.00;;
1569;SDS011;778;50.120;8.698;2023-02-15T16:31:57;63.70;;;34.77;;